Terminal Aerodrome Forecast
Issued by NWS

Home | Current Version | Previous Version | Text Only | Print | Product List | Glossary On
Versions: 1 2 3 4 5 6 7 8 9 10 11 12 13 14 15 16 17 18 19 20
000
FTUS42 KILM 030500
TAFCRE
TAF
KCRE 030527Z 0306/0406 06009KT P6SM BKN045 BKN150
     FM031200 05010KT P6SM VCSH FEW015 OVC030
     FM031600 07008KT 6SM -RA BR OVC025
     FM031800 06008KT 5SM -RA BR OVC015
     FM032200 12006KT 2SM BR OVC004=

USA.gov is the U.S. government's official web portal to all federal, state and local government web resources and services.